Kaiser — NHJK — position and weather

sailwx.info

Track history (hours):
 
Tides and Currents Weather Stations Pressure Air Temp Water Temp Dewpoint Dewpoint Depression Visibility Wind Speed Wind Dir Waves Ship Positions

Kaiser

Last reported at 2014-Sep-02 20:21 UTC. Time now 2014-Sep-02 21:19 UTC.
Position N 32°36' W 118°05'.

Length 207 m; draft 8.5 m.

Type: Tanker. MMSI: 303849000.

Date/timePositionNaut miles runAvg speedWind from/ knotsBaromVisibWave heightAir tempDewpointWater temp
2014-Sep-02 20:21N 32°36' W 118°05'1112.4
2014-Sep-02 19:30N 32°36' W 117°53'1312.3
2014-Sep-02 18:28N 32°36' W 117°37'1212.9
2014-Sep-02 17:32N 32°36' W 117°23'  
2014-Aug-29 20:33N 32°43' W 117°13'1 0.2
2014-Aug-29 14:30N 32°42' W 117°14'6 6.0
2014-Aug-29 13:33N 32°36' W 117°13'9 8.6
2014-Aug-29 12:32N 32°35' W 117°23'10 9.8
2014-Aug-29 11:33N 32°38' W 117°34'9 9.4
2014-Aug-29 10:33N 32°42' W 117°44'1010.2
2014-Aug-29 09:33N 32°47' W 117°54'1010.4
2014-Aug-29 08:33N 32°55' W 118°03'2 2.2
2014-Aug-29 07:33N 32°53' W 118°02'8 8.2
2014-Aug-29 06:33N 33°01' W 118°05'3 3.5
2014-Aug-29 05:33N 32°57' W 118°04'3 2.6
2014-Aug-29 04:33N 32°55' W 118°04'4 2.9
2014-Aug-29 03:12N 32°59' W 118°02'710.6
2014-Aug-29 02:33N 32°53' W 117°58'3 3.3
2014-Aug-29 01:33N 32°50' W 117°56'4 4.3
2014-Aug-29 00:33N 32°54' W 117°59'4 4.4
2014-Aug-28 23:33N 32°57' W 118°01'5 4.7
2014-Aug-28 22:33N 33°02' W 118°04'3 2.6
2014-Aug-28 21:18N 33°05' W 118°06'2 2.7
2014-Aug-28 20:33N 33°03' W 118°05'3 2.6
2014-Aug-28 19:33N 33°00' W 118°04'3 2.8
2014-Aug-28 18:33N 32°58' W 118°03'3 3.1
2014-Aug-28 17:33N 32°55' W 118°01'4 3.5
2014-Aug-28 16:33N 32°51' W 118°00'3 2.6
2014-Aug-28 15:33N 32°54' W 118°01'7 7.4
2014-Aug-28 14:33N 33°01' W 118°04'3 2.9
2014-Aug-28 13:33N 33°03' W 118°06'8 8.3
2014-Aug-28 12:33N 32°55' W 118°02'5 5.0
2014-Aug-28 11:33N 32°50' W 118°01'8 8.2
2014-Aug-28 10:33N 32°58' W 118°06'8 8.2
2014-Aug-28 09:33N 33°05' W 118°10'6 6.1
2014-Aug-28 08:34N 32°60' W 118°07'8 8.0
2014-Aug-28 07:33N 32°52' W 118°02'2 2.4
2014-Aug-28 06:33N 32°54' W 118°04'8 8.3
2014-Aug-28 05:33N 33°02' W 118°09'3 3.1
2014-Aug-28 04:33N 32°59' W 118°07'8 7.9
2014-Aug-28 03:33N 32°52' W 118°03'6 6.3
2014-Aug-28 02:33N 32°57' W 118°06'7 6.6
2014-Aug-28 01:33N 33°03' W 118°09'8 7.9
2014-Aug-28 00:33N 32°57' W 118°05'1010.4
2014-Aug-27 23:33N 32°49' W 117°56'1110.7
2014-Aug-27 22:33N 32°41' W 117°47'1 0.5
2014-Aug-27 21:33N 32°42' W 117°48'8 8.1
2014-Aug-27 20:34N 32°43' W 117°57'1212.1
2014-Aug-27 19:33N 32°37' W 118°10'1611.1
2014-Aug-27 18:09N 32°35' W 118°28'711.2
2014-Aug-27 17:33N 32°29' W 118°30'9 8.6
2014-Aug-27 16:31N 32°20' W 118°34'1212.6
2014-Aug-27 15:33N 32°29' W 118°44'1411.6
2014-Aug-27 14:22N 32°37' W 118°57'4 4.6
2014-Aug-27 13:33N 32°37' W 118°53'1110.7
2014-Aug-27 12:33N 32°37' W 118°40'1110.9
2014-Aug-27 11:33N 32°36' W 118°27'18 9.0
2014-Aug-27 09:30N 32°38' W 118°49'1011.0
2014-Aug-27 08:33N 32°38' W 118°37'1111.0
2014-Aug-27 07:33N 32°37' W 118°24'3 3.0
2014-Aug-27 06:33N 32°37' W 118°27'1111.1
2014-Aug-27 05:32N 32°37' W 118°40'3 3.0
2014-Aug-27 04:23N 32°39' W 118°37'910.5
2014-Aug-27 03:33N 32°37' W 118°27'1110.6
2014-Aug-27 02:33N 32°37' W 118°14'1111.0
2014-Aug-27 01:33N 32°36' W 118°27'1111.1
2014-Aug-27 00:33N 32°36' W 118°40'2 2.4
2014-Aug-26 23:31N 32°37' W 118°43'1010.7
2014-Aug-26 22:34N 32°37' W 118°31'1110.7
2014-Aug-26 21:33N 32°38' W 118°18'7 6.1
2014-Aug-26 20:22N 32°37' W 118°27'4 1.1
2014-Aug-26 16:33N 32°37' W 118°32'1110.9
2014-Aug-26 15:33N 32°38' W 118°19'1312.1
2014-Aug-26 14:27N 32°37' W 118°03'19 9.7
2014-Aug-26 12:32N 32°56' W 118°07'7 5.6
2014-Aug-26 11:16N 33°01' W 118°13'810.9
2014-Aug-26 10:30N 32°55' W 118°06'10 4.9
2014-Aug-26 08:33N 33°02' W 118°14'16 6.8
2014-Aug-26 06:15N 32°51' W 118°01'911.4
2014-Aug-26 05:28N 32°57' W 118°08'1111.8
2014-Aug-26 04:33N 33°05' W 118°17'10 9.8
2014-Aug-26 03:33N 33°13' W 118°24'1010.6
2014-Aug-26 02:33N 33°07' W 118°13'1210.5
2014-Aug-26 01:27N 33°01' W 118°02'910.3
2014-Aug-26 00:33N 32°55' W 117°53'3 2.7
2014-Aug-25 23:33N 32°55' W 117°50'7 7.0
2014-Aug-25 22:33N 32°59' W 117°57'1412.5
2014-Aug-25 21:28N 32°51' W 117°43'1415.7
2014-Aug-25 20:33N 32°42' W 117°30'14 7.1
2014-Aug-25 18:32N 32°43' W 117°13'  
Track history (hours):
 
Tides and Currents Weather Stations Pressure Air Temp Water Temp Dewpoint Dewpoint Depression Visibility Wind Speed Wind Dir Waves Ship Positions

Kaiser

Last reported at 2014-Sep-02 20:21 UTC. Time now 2014-Sep-02 21:19 UTC.
Position N 32°36' W 118°05'.

Length 207 m; draft 8.5 m.

Type: Tanker. MMSI: 303849000.

Date/timePositionNaut miles runAvg speedWind from/ knotsBaromVisibWave heightAir tempDewpointWater temp
2014-Sep-02 20:21N 32°36' W 118°05'1112.4
2014-Sep-02 19:30N 32°36' W 117°53'1312.3
2014-Sep-02 18:28N 32°36' W 117°37'1212.9
2014-Sep-02 17:32N 32°36' W 117°23'  
2014-Aug-29 20:33N 32°43' W 117°13'1 0.2
2014-Aug-29 14:30N 32°42' W 117°14'6 6.0
2014-Aug-29 13:33N 32°36' W 117°13'9 8.6
2014-Aug-29 12:32N 32°35' W 117°23'10 9.8
2014-Aug-29 11:33N 32°38' W 117°34'9 9.4
2014-Aug-29 10:33N 32°42' W 117°44'1010.2
2014-Aug-29 09:33N 32°47' W 117°54'1010.4
2014-Aug-29 08:33N 32°55' W 118°03'2 2.2
2014-Aug-29 07:33N 32°53' W 118°02'8 8.2
2014-Aug-29 06:33N 33°01' W 118°05'3 3.5
2014-Aug-29 05:33N 32°57' W 118°04'3 2.6
2014-Aug-29 04:33N 32°55' W 118°04'4 2.9
2014-Aug-29 03:12N 32°59' W 118°02'710.6
2014-Aug-29 02:33N 32°53' W 117°58'3 3.3
2014-Aug-29 01:33N 32°50' W 117°56'4 4.3
2014-Aug-29 00:33N 32°54' W 117°59'4 4.4
2014-Aug-28 23:33N 32°57' W 118°01'5 4.7
2014-Aug-28 22:33N 33°02' W 118°04'3 2.6
2014-Aug-28 21:18N 33°05' W 118°06'2 2.7
2014-Aug-28 20:33N 33°03' W 118°05'3 2.6
2014-Aug-28 19:33N 33°00' W 118°04'3 2.8
2014-Aug-28 18:33N 32°58' W 118°03'3 3.1
2014-Aug-28 17:33N 32°55' W 118°01'4 3.5
2014-Aug-28 16:33N 32°51' W 118°00'3 2.6
2014-Aug-28 15:33N 32°54' W 118°01'7 7.4
2014-Aug-28 14:33N 33°01' W 118°04'3 2.9
2014-Aug-28 13:33N 33°03' W 118°06'8 8.3
2014-Aug-28 12:33N 32°55' W 118°02'5 5.0
2014-Aug-28 11:33N 32°50' W 118°01'8 8.2
2014-Aug-28 10:33N 32°58' W 118°06'8 8.2
2014-Aug-28 09:33N 33°05' W 118°10'6 6.1
2014-Aug-28 08:34N 32°60' W 118°07'8 8.0
2014-Aug-28 07:33N 32°52' W 118°02'2 2.4
2014-Aug-28 06:33N 32°54' W 118°04'8 8.3
2014-Aug-28 05:33N 33°02' W 118°09'3 3.1
2014-Aug-28 04:33N 32°59' W 118°07'8 7.9
2014-Aug-28 03:33N 32°52' W 118°03'6 6.3
2014-Aug-28 02:33N 32°57' W 118°06'7 6.6
2014-Aug-28 01:33N 33°03' W 118°09'8 7.9
2014-Aug-28 00:33N 32°57' W 118°05'1010.4
2014-Aug-27 23:33N 32°49' W 117°56'1110.7
2014-Aug-27 22:33N 32°41' W 117°47'1 0.5
2014-Aug-27 21:33N 32°42' W 117°48'8 8.1
2014-Aug-27 20:34N 32°43' W 117°57'1212.1
2014-Aug-27 19:33N 32°37' W 118°10'1611.1
2014-Aug-27 18:09N 32°35' W 118°28'711.2
2014-Aug-27 17:33N 32°29' W 118°30'9 8.6
2014-Aug-27 16:31N 32°20' W 118°34'1212.6
2014-Aug-27 15:33N 32°29' W 118°44'1411.6
2014-Aug-27 14:22N 32°37' W 118°57'4 4.6
2014-Aug-27 13:33N 32°37' W 118°53'1110.7
2014-Aug-27 12:33N 32°37' W 118°40'1110.9
2014-Aug-27 11:33N 32°36' W 118°27'18 9.0
2014-Aug-27 09:30N 32°38' W 118°49'1011.0
2014-Aug-27 08:33N 32°38' W 118°37'1111.0
2014-Aug-27 07:33N 32°37' W 118°24'3 3.0
2014-Aug-27 06:33N 32°37' W 118°27'1111.1
2014-Aug-27 05:32N 32°37' W 118°40'3 3.0
2014-Aug-27 04:23N 32°39' W 118°37'910.5
2014-Aug-27 03:33N 32°37' W 118°27'1110.6
2014-Aug-27 02:33N 32°37' W 118°14'1111.0
2014-Aug-27 01:33N 32°36' W 118°27'1111.1
2014-Aug-27 00:33N 32°36' W 118°40'2 2.4
2014-Aug-26 23:31N 32°37' W 118°43'1010.7
2014-Aug-26 22:34N 32°37' W 118°31'1110.7
2014-Aug-26 21:33N 32°38' W 118°18'7 6.1
2014-Aug-26 20:22N 32°37' W 118°27'4 1.1
2014-Aug-26 16:33N 32°37' W 118°32'1110.9
2014-Aug-26 15:33N 32°38' W 118°19'1312.1
2014-Aug-26 14:27N 32°37' W 118°03'19 9.7
2014-Aug-26 12:32N 32°56' W 118°07'7 5.6
2014-Aug-26 11:16N 33°01' W 118°13'810.9
2014-Aug-26 10:30N 32°55' W 118°06'10 4.9
2014-Aug-26 08:33N 33°02' W 118°14'16 6.8
2014-Aug-26 06:15N 32°51' W 118°01'911.4
2014-Aug-26 05:28N 32°57' W 118°08'1111.8
2014-Aug-26 04:33N 33°05' W 118°17'10 9.8
2014-Aug-26 03:33N 33°13' W 118°24'1010.6
2014-Aug-26 02:33N 33°07' W 118°13'1210.5
2014-Aug-26 01:27N 33°01' W 118°02'910.3
2014-Aug-26 00:33N 32°55' W 117°53'3 2.7
2014-Aug-25 23:33N 32°55' W 117°50'7 7.0
2014-Aug-25 22:33N 32°59' W 117°57'1412.5
2014-Aug-25 21:28N 32°51' W 117°43'1415.7
2014-Aug-25 20:33N 32°42' W 117°30'14 7.1
2014-Aug-25 18:32N 32°43' W 117°13'  

Dump ship's entire track history